sensor_id;sensor_type;location;lat;lon;timestamp;P1;durP1;ratioP1;P2;durP2;ratioP2
42168;SDS011;27838;43.858;25.974;2022-07-10T00:01:19;6.07;;;5.13;;
42168;SDS011;27838;43.858;25.974;2022-07-10T00:03:45;6.63;;;4.70;;
42168;SDS011;27838;43.858;25.974;2022-07-10T00:06:14;5.78;;;5.25;;
42168;SDS011;27838;43.858;25.974;2022-07-10T00:08:41;5.20;;;4.68;;
42168;SDS011;27838;43.858;25.974;2022-07-10T00:11:09;12.48;;;5.40;;
42168;SDS011;27838;43.858;25.974;2022-07-10T00:13:36;5.03;;;4.57;;
42168;SDS011;27838;43.858;25.974;2022-07-10T00:16:02;6.13;;;4.80;;
42168;SDS011;27838;43.858;25.974;2022-07-10T00:18:29;12.45;;;4.93;;
42168;SDS011;27838;43.858;25.974;2022-07-10T00:20:56;5.80;;;5.30;;
42168;SDS011;27838;43.858;25.974;2022-07-10T00:23:22;8.65;;;5.38;;
42168;SDS011;27838;43.858;25.974;2022-07-10T00:25:59;8.07;;;5.10;;
42168;SDS011;27838;43.858;25.974;2022-07-10T00:28:26;6.65;;;5.32;;
42168;SDS011;27838;43.858;25.974;2022-07-10T00:30:52;7.72;;;5.60;;
42168;SDS011;27838;43.858;25.974;2022-07-10T00:33:19;15.48;;;6.07;;
42168;SDS011;27838;43.858;25.974;2022-07-10T00:35:45;6.82;;;5.15;;
42168;SDS011;27838;43.858;25.974;2022-07-10T00:38:12;9.13;;;5.72;;
42168;SDS011;27838;43.858;25.974;2022-07-10T00:40:39;10.52;;;5.35;;
42168;SDS011;27838;43.858;25.974;2022-07-10T00:43:08;6.22;;;5.38;;
42168;SDS011;27838;43.858;25.974;2022-07-10T00:45:35;11.43;;;5.50;;
42168;SDS011;27838;43.858;25.974;2022-07-10T00:48:02;8.63;;;5.90;;
42168;SDS011;27838;43.858;25.974;2022-07-10T00:50:29;7.70;;;5.70;;
42168;SDS011;27838;43.858;25.974;2022-07-10T00:52:55;7.35;;;5.45;;
42168;SDS011;27838;43.858;25.974;2022-07-10T00:55:22;8.48;;;5.60;;
42168;SDS011;27838;43.858;25.974;2022-07-10T00:57:49;9.00;;;5.93;;
42168;SDS011;27838;43.858;25.974;2022-07-10T01:00:15;19.52;;;6.97;;
42168;SDS011;27838;43.858;25.974;2022-07-10T01:02:43;6.63;;;5.93;;
42168;SDS011;27838;43.858;25.974;2022-07-10T01:05:10;9.63;;;6.32;;
42168;SDS011;27838;43.858;25.974;2022-07-10T01:07:37;6.13;;;5.53;;
42168;SDS011;27838;43.858;25.974;2022-07-10T01:10:04;6.93;;;6.22;;
42168;SDS011;27838;43.858;25.974;2022-07-10T01:12:31;9.00;;;6.20;;
42168;SDS011;27838;43.858;25.974;2022-07-10T01:14:58;7.18;;;5.80;;
42168;SDS011;27838;43.858;25.974;2022-07-10T01:17:25;7.95;;;6.32;;
42168;SDS011;27838;43.858;25.974;2022-07-10T01:19:54;7.50;;;6.70;;
42168;SDS011;27838;43.858;25.974;2022-07-10T01:22:21;9.80;;;6.90;;
42168;SDS011;27838;43.858;25.974;2022-07-10T01:24:47;10.15;;;6.30;;
42168;SDS011;27838;43.858;25.974;2022-07-10T01:27:14;8.15;;;7.22;;
42168;SDS011;27838;43.858;25.974;2022-07-10T01:29:43;10.70;;;7.80;;
42168;SDS011;27838;43.858;25.974;2022-07-10T01:32:10;8.40;;;7.40;;
42168;SDS011;27838;43.858;25.974;2022-07-10T01:34:37;8.18;;;7.38;;
42168;SDS011;27838;43.858;25.974;2022-07-10T01:37:04;9.38;;;7.22;;
42168;SDS011;27838;43.858;25.974;2022-07-10T01:39:31;9.70;;;7.82;;
42168;SDS011;27838;43.858;25.974;2022-07-10T01:41:57;9.20;;;7.88;;
42168;SDS011;27838;43.858;25.974;2022-07-10T01:44:24;8.23;;;7.38;;
42168;SDS011;27838;43.858;25.974;2022-07-10T01:46:51;9.05;;;8.20;;
42168;SDS011;27838;43.858;25.974;2022-07-10T01:49:18;8.85;;;8.05;;
42168;SDS011;27838;43.858;25.974;2022-07-10T01:51:44;10.93;;;8.30;;
42168;SDS011;27838;43.858;25.974;2022-07-10T01:54:11;12.32;;;8.77;;
42168;SDS011;27838;43.858;25.974;2022-07-10T01:56:37;11.13;;;8.73;;
42168;SDS011;27838;43.858;25.974;2022-07-10T01:59:04;10.45;;;8.82;;
42168;SDS011;27838;43.858;25.974;2022-07-10T02:01:31;13.20;;;8.68;;
42168;SDS011;27838;43.858;25.974;2022-07-10T02:03:58;11.57;;;8.93;;
42168;SDS011;27838;43.858;25.974;2022-07-10T02:06:42;10.82;;;9.02;;
42168;SDS011;27838;43.858;25.974;2022-07-10T02:09:09;10.27;;;8.20;;
42168;SDS011;27838;43.858;25.974;2022-07-10T02:11:36;13.55;;;9.38;;
42168;SDS011;27838;43.858;25.974;2022-07-10T02:14:02;15.00;;;9.63;;
42168;SDS011;27838;43.858;25.974;2022-07-10T02:16:29;10.20;;;8.88;;
42168;SDS011;27838;43.858;25.974;2022-07-10T02:18:56;10.50;;;9.40;;
42168;SDS011;27838;43.858;25.974;2022-07-10T02:21:22;11.82;;;9.55;;
42168;SDS011;27838;43.858;25.974;2022-07-10T02:23:49;13.13;;;9.07;;
42168;SDS011;27838;43.858;25.974;2022-07-10T02:26:15;9.80;;;8.80;;
42168;SDS011;27838;43.858;25.974;2022-07-10T02:28:42;11.48;;;9.68;;
42168;SDS011;27838;43.858;25.974;2022-07-10T02:31:08;10.73;;;9.18;;
42168;SDS011;27838;43.858;25.974;2022-07-10T02:33:35;10.25;;;9.32;;
42168;SDS011;27838;43.858;25.974;2022-07-10T02:36:02;11.60;;;9.57;;
42168;SDS011;27838;43.858;25.974;2022-07-10T02:38:30;11.85;;;10.45;;
42168;SDS011;27838;43.858;25.974;2022-07-10T02:40:56;11.95;;;10.13;;
42168;SDS011;27838;43.858;25.974;2022-07-10T02:43:23;10.93;;;9.85;;
42168;SDS011;27838;43.858;25.974;2022-07-10T02:45:49;15.15;;;10.90;;
42168;SDS011;27838;43.858;25.974;2022-07-10T02:48:16;10.98;;;9.88;;
42168;SDS011;27838;43.858;25.974;2022-07-10T02:50:43;11.25;;;9.95;;
42168;SDS011;27838;43.858;25.974;2022-07-10T02:53:10;11.82;;;10.40;;
42168;SDS011;27838;43.858;25.974;2022-07-10T02:55:36;11.02;;;9.93;;
42168;SDS011;27838;43.858;25.974;2022-07-10T02:58:03;11.55;;;9.48;;
42168;SDS011;27838;43.858;25.974;2022-07-10T03:00:30;10.90;;;9.88;;
42168;SDS011;27838;43.858;25.974;2022-07-10T03:02:56;12.57;;;9.82;;
42168;SDS011;27838;43.858;25.974;2022-07-10T03:05:23;11.00;;;9.90;;
42168;SDS011;27838;43.858;25.974;2022-07-10T03:07:50;10.98;;;9.88;;
42168;SDS011;27838;43.858;25.974;2022-07-10T03:10:16;10.95;;;9.70;;
42168;SDS011;27838;43.858;25.974;2022-07-10T03:12:43;10.13;;;9.23;;
42168;SDS011;27838;43.858;25.974;2022-07-10T03:15:10;12.70;;;9.88;;
42168;SDS011;27838;43.858;25.974;2022-07-10T03:17:36;11.00;;;10.00;;
42168;SDS011;27838;43.858;25.974;2022-07-10T03:20:03;12.13;;;9.85;;
42168;SDS011;27838;43.858;25.974;2022-07-10T03:22:30;11.40;;;9.50;;
42168;SDS011;27838;43.858;25.974;2022-07-10T03:24:57;13.68;;;10.07;;
42168;SDS011;27838;43.858;25.974;2022-07-10T03:27:24;11.80;;;9.68;;
42168;SDS011;27838;43.858;25.974;2022-07-10T03:29:51;13.98;;;9.48;;
42168;SDS011;27838;43.858;25.974;2022-07-10T03:32:17;12.60;;;9.95;;
42168;SDS011;27838;43.858;25.974;2022-07-10T03:34:44;10.70;;;9.00;;
42168;SDS011;27838;43.858;25.974;2022-07-10T03:37:10;12.70;;;9.23;;
42168;SDS011;27838;43.858;25.974;2022-07-10T03:39:37;13.95;;;10.02;;
42168;SDS011;27838;43.858;25.974;2022-07-10T03:42:04;13.05;;;10.68;;
42168;SDS011;27838;43.858;25.974;2022-07-10T03:44:31;16.13;;;11.52;;
42168;SDS011;27838;43.858;25.974;2022-07-10T03:46:58;28.20;;;24.35;;
42168;SDS011;27838;43.858;25.974;2022-07-10T03:49:25;21.20;;;17.67;;
42168;SDS011;27838;43.858;25.974;2022-07-10T03:51:51;71.55;;;61.80;;
42168;SDS011;27838;43.858;25.974;2022-07-10T03:54:18;16.05;;;12.50;;
42168;SDS011;27838;43.858;25.974;2022-07-10T03:56:44;25.38;;;21.52;;
42168;SDS011;27838;43.858;25.974;2022-07-10T03:59:28;23.67;;;18.85;;
42168;SDS011;27838;43.858;25.974;2022-07-10T04:01:55;14.23;;;12.77;;
42168;SDS011;27838;43.858;25.974;2022-07-10T04:04:22;23.33;;;20.85;;
42168;SDS011;27838;43.858;25.974;2022-07-10T04:06:48;12.23;;;11.00;;
42168;SDS011;27838;43.858;25.974;2022-07-10T04:09:15;16.38;;;12.00;;
42168;SDS011;27838;43.858;25.974;2022-07-10T04:11:41;17.77;;;15.95;;
42168;SDS011;27838;43.858;25.974;2022-07-10T04:14:08;16.95;;;15.07;;
42168;SDS011;27838;43.858;25.974;2022-07-10T04:16:34;19.10;;;14.95;;
42168;SDS011;27838;43.858;25.974;2022-07-10T04:19:01;15.82;;;14.18;;
42168;SDS011;27838;43.858;25.974;2022-07-10T04:21:28;31.85;;;27.52;;
42168;SDS011;27838;43.858;25.974;2022-07-10T04:23:54;89.65;;;73.95;;
42168;SDS011;27838;43.858;25.974;2022-07-10T04:26:21;76.45;;;63.58;;
42168;SDS011;27838;43.858;25.974;2022-07-10T04:28:47;18.88;;;12.10;;
42168;SDS011;27838;43.858;25.974;2022-07-10T04:31:14;34.00;;;28.40;;
42168;SDS011;27838;43.858;25.974;2022-07-10T04:33:41;17.83;;;15.93;;
42168;SDS011;27838;43.858;25.974;2022-07-10T04:36:07;15.30;;;13.80;;
42168;SDS011;27838;43.858;25.974;2022-07-10T04:38:34;23.27;;;18.25;;
42168;SDS011;27838;43.858;25.974;2022-07-10T04:41:01;17.25;;;14.85;;
42168;SDS011;27838;43.858;25.974;2022-07-10T04:43:27;14.15;;;11.55;;
42168;SDS011;27838;43.858;25.974;2022-07-10T04:45:55;22.90;;;15.98;;
42168;SDS011;27838;43.858;25.974;2022-07-10T04:48:22;17.02;;;15.07;;
42168;SDS011;27838;43.858;25.974;2022-07-10T04:50:49;14.93;;;12.07;;
42168;SDS011;27838;43.858;25.974;2022-07-10T04:53:15;13.00;;;11.80;;
42168;SDS011;27838;43.858;25.974;2022-07-10T04:55:42;18.20;;;13.43;;
42168;SDS011;27838;43.858;25.974;2022-07-10T04:58:08;12.70;;;11.50;;
42168;SDS011;27838;43.858;25.974;2022-07-10T05:00:35;14.60;;;12.43;;
42168;SDS011;27838;43.858;25.974;2022-07-10T05:03:01;40.75;;;33.25;;
42168;SDS011;27838;43.858;25.974;2022-07-10T05:05:28;91.35;;;78.80;;
42168;SDS011;27838;43.858;25.974;2022-07-10T05:07:55;64.15;;;53.92;;
42168;SDS011;27838;43.858;25.974;2022-07-10T05:10:21;67.00;;;58.90;;
42168;SDS011;27838;43.858;25.974;2022-07-10T05:12:48;39.13;;;32.33;;
42168;SDS011;27838;43.858;25.974;2022-07-10T05:15:14;18.67;;;16.70;;
42168;SDS011;27838;43.858;25.974;2022-07-10T05:17:41;28.92;;;24.90;;
42168;SDS011;27838;43.858;25.974;2022-07-10T05:20:09;24.23;;;19.85;;
42168;SDS011;27838;43.858;25.974;2022-07-10T05:22:36;14.23;;;11.77;;
42168;SDS011;27838;43.858;25.974;2022-07-10T05:25:02;15.32;;;13.73;;
42168;SDS011;27838;43.858;25.974;2022-07-10T05:27:29;13.05;;;11.02;;
42168;SDS011;27838;43.858;25.974;2022-07-10T05:29:56;11.75;;;10.65;;
42168;SDS011;27838;43.858;25.974;2022-07-10T05:32:22;18.45;;;12.15;;
42168;SDS011;27838;43.858;25.974;2022-07-10T05:34:50;14.30;;;11.75;;
42168;SDS011;27838;43.858;25.974;2022-07-10T05:37:16;16.90;;;11.48;;
42168;SDS011;27838;43.858;25.974;2022-07-10T05:39:43;13.50;;;11.93;;
42168;SDS011;27838;43.858;25.974;2022-07-10T05:42:10;18.75;;;12.70;;
42168;SDS011;27838;43.858;25.974;2022-07-10T05:44:37;17.77;;;11.75;;
42168;SDS011;27838;43.858;25.974;2022-07-10T05:47:03;18.80;;;11.93;;
42168;SDS011;27838;43.858;25.974;2022-07-10T05:49:30;12.65;;;10.18;;
42168;SDS011;27838;43.858;25.974;2022-07-10T05:51:57;12.10;;;10.35;;
42168;SDS011;27838;43.858;25.974;2022-07-10T05:54:24;13.20;;;10.38;;
42168;SDS011;27838;43.858;25.974;2022-07-10T05:56:51;13.23;;;9.27;;
42168;SDS011;27838;43.858;25.974;2022-07-10T05:59:17;19.58;;;10.75;;
42168;SDS011;27838;43.858;25.974;2022-07-10T06:01:44;12.23;;;11.13;;
42168;SDS011;27838;43.858;25.974;2022-07-10T06:04:10;13.85;;;12.02;;
42168;SDS011;27838;43.858;25.974;2022-07-10T06:06:37;18.65;;;14.00;;
42168;SDS011;27838;43.858;25.974;2022-07-10T06:09:03;16.83;;;13.40;;
42168;SDS011;27838;43.858;25.974;2022-07-10T06:11:30;15.90;;;12.55;;
42168;SDS011;27838;43.858;25.974;2022-07-10T06:13:56;35.70;;;31.38;;
42168;SDS011;27838;43.858;25.974;2022-07-10T06:16:23;33.10;;;28.23;;
42168;SDS011;27838;43.858;25.974;2022-07-10T06:18:50;21.35;;;17.98;;
42168;SDS011;27838;43.858;25.974;2022-07-10T06:21:16;16.10;;;13.68;;
42168;SDS011;27838;43.858;25.974;2022-07-10T06:23:46;16.45;;;13.15;;
42168;SDS011;27838;43.858;25.974;2022-07-10T06:26:13;12.38;;;11.07;;
42168;SDS011;27838;43.858;25.974;2022-07-10T06:28:40;12.77;;;10.95;;
42168;SDS011;27838;43.858;25.974;2022-07-10T06:31:06;18.35;;;11.02;;
42168;SDS011;27838;43.858;25.974;2022-07-10T06:33:33;13.10;;;11.40;;
42168;SDS011;27838;43.858;25.974;2022-07-10T06:36:01;12.07;;;10.88;;
42168;SDS011;27838;43.858;25.974;2022-07-10T06:38:28;14.75;;;11.50;;
42168;SDS011;27838;43.858;25.974;2022-07-10T06:40:55;11.43;;;10.30;;
42168;SDS011;27838;43.858;25.974;2022-07-10T06:43:21;13.23;;;10.35;;
42168;SDS011;27838;43.858;25.974;2022-07-10T06:45:48;12.82;;;10.57;;
42168;SDS011;27838;43.858;25.974;2022-07-10T06:48:15;11.35;;;10.05;;
42168;SDS011;27838;43.858;25.974;2022-07-10T06:50:41;11.60;;;10.43;;
42168;SDS011;27838;43.858;25.974;2022-07-10T06:53:07;11.25;;;10.15;;
42168;SDS011;27838;43.858;25.974;2022-07-10T06:55:34;13.18;;;10.48;;
42168;SDS011;27838;43.858;25.974;2022-07-10T06:58:01;15.68;;;10.10;;
42168;SDS011;27838;43.858;25.974;2022-07-10T07:00:27;10.68;;;9.68;;
42168;SDS011;27838;43.858;25.974;2022-07-10T07:02:54;14.50;;;10.05;;
42168;SDS011;27838;43.858;25.974;2022-07-10T07:05:21;12.00;;;10.45;;
42168;SDS011;27838;43.858;25.974;2022-07-10T07:07:47;15.13;;;10.23;;
42168;SDS011;27838;43.858;25.974;2022-07-10T07:10:14;12.63;;;10.13;;
42168;SDS011;27838;43.858;25.974;2022-07-10T07:12:41;11.50;;;9.95;;
42168;SDS011;27838;43.858;25.974;2022-07-10T07:15:07;21.42;;;9.77;;
42168;SDS011;27838;43.858;25.974;2022-07-10T07:17:40;13.40;;;9.48;;
42168;SDS011;27838;43.858;25.974;2022-07-10T07:20:23;10.90;;;9.27;;
42168;SDS011;27838;43.858;25.974;2022-07-10T07:23:07;8.88;;;7.93;;
42168;SDS011;27838;43.858;25.974;2022-07-10T07:25:37;8.90;;;8.00;;
42168;SDS011;27838;43.858;25.974;2022-07-10T07:28:07;9.32;;;8.10;;
42168;SDS011;27838;43.858;25.974;2022-07-10T07:30:35;9.23;;;7.25;;
42168;SDS011;27838;43.858;25.974;2022-07-10T07:33:01;9.15;;;7.32;;
42168;SDS011;27838;43.858;25.974;2022-07-10T07:35:30;10.07;;;7.22;;
42168;SDS011;27838;43.858;25.974;2022-07-10T07:37:57;12.63;;;7.78;;
42168;SDS011;27838;43.858;25.974;2022-07-10T07:40:24;10.82;;;6.72;;
42168;SDS011;27838;43.858;25.974;2022-07-10T07:42:51;7.78;;;6.70;;
42168;SDS011;27838;43.858;25.974;2022-07-10T07:45:19;6.97;;;6.28;;
42168;SDS011;27838;43.858;25.974;2022-07-10T07:47:47;7.00;;;6.18;;
42168;SDS011;27838;43.858;25.974;2022-07-10T07:50:26;6.80;;;6.10;;
42168;SDS011;27838;43.858;25.974;2022-07-10T07:52:58;8.30;;;5.93;;
42168;SDS011;27838;43.858;25.974;2022-07-10T07:55:26;6.50;;;5.90;;
42168;SDS011;27838;43.858;25.974;2022-07-10T07:57:54;7.22;;;5.60;;
42168;SDS011;27838;43.858;25.974;2022-07-10T08:00:22;7.18;;;5.72;;
42168;SDS011;27838;43.858;25.974;2022-07-10T08:02:51;10.07;;;6.32;;
42168;SDS011;27838;43.858;25.974;2022-07-10T08:05:20;6.72;;;5.88;;
42168;SDS011;27838;43.858;25.974;2022-07-10T08:07:55;9.27;;;5.15;;
42168;SDS011;27838;43.858;25.974;2022-07-10T08:10:25;7.88;;;5.63;;
42168;SDS011;27838;43.858;25.974;2022-07-10T08:12:52;7.05;;;5.32;;
42168;SDS011;27838;43.858;25.974;2022-07-10T08:15:19;8.02;;;5.43;;
42168;SDS011;27838;43.858;25.974;2022-07-10T08:17:48;9.93;;;6.05;;
42168;SDS011;27838;43.858;25.974;2022-07-10T08:20:16;6.57;;;5.70;;
42168;SDS011;27838;43.858;25.974;2022-07-10T08:22:43;6.70;;;5.28;;
42168;SDS011;27838;43.858;25.974;2022-07-10T08:25:10;10.18;;;5.38;;
42168;SDS011;27838;43.858;25.974;2022-07-10T08:27:37;7.03;;;4.95;;
42168;SDS011;27838;43.858;25.974;2022-07-10T08:30:07;12.20;;;5.45;;
42168;SDS011;27838;43.858;25.974;2022-07-10T08:32:35;6.35;;;5.15;;
42168;SDS011;27838;43.858;25.974;2022-07-10T08:35:03;6.72;;;4.82;;
42168;SDS011;27838;43.858;25.974;2022-07-10T08:37:36;8.00;;;5.45;;
42168;SDS011;27838;43.858;25.974;2022-07-10T08:40:10;7.10;;;5.85;;
42168;SDS011;27838;43.858;25.974;2022-07-10T08:42:38;8.88;;;6.13;;
42168;SDS011;27838;43.858;25.974;2022-07-10T08:45:05;19.85;;;13.70;;
42168;SDS011;27838;43.858;25.974;2022-07-10T08:47:35;9.85;;;8.55;;
42168;SDS011;27838;43.858;25.974;2022-07-10T08:50:22;10.75;;;5.72;;
42168;SDS011;27838;43.858;25.974;2022-07-10T08:55:29;6.82;;;5.05;;
42168;SDS011;27838;43.858;25.974;2022-07-10T08:57:56;13.52;;;6.95;;
42168;SDS011;27838;43.858;25.974;2022-07-10T09:00:24;8.18;;;5.57;;
42168;SDS011;27838;43.858;25.974;2022-07-10T09:02:52;8.80;;;5.78;;
42168;SDS011;27838;43.858;25.974;2022-07-10T09:05:20;8.50;;;6.03;;
42168;SDS011;27838;43.858;25.974;2022-07-10T09:07:47;6.30;;;5.05;;
42168;SDS011;27838;43.858;25.974;2022-07-10T09:10:13;6.28;;;5.30;;
42168;SDS011;27838;43.858;25.974;2022-07-10T09:12:50;7.38;;;5.22;;
42168;SDS011;27838;43.858;25.974;2022-07-10T09:15:22;5.47;;;4.95;;
42168;SDS011;27838;43.858;25.974;2022-07-10T09:20:37;8.55;;;5.40;;
42168;SDS011;27838;43.858;25.974;2022-07-10T09:23:15;7.32;;;5.80;;
42168;SDS011;27838;43.858;25.974;2022-07-10T09:25:46;10.15;;;5.00;;
42168;SDS011;27838;43.858;25.974;2022-07-10T09:28:15;7.47;;;5.32;;
42168;SDS011;27838;43.858;25.974;2022-07-10T09:30:43;6.90;;;4.78;;
42168;SDS011;27838;43.858;25.974;2022-07-10T09:33:14;7.63;;;4.70;;
42168;SDS011;27838;43.858;25.974;2022-07-10T09:36:00;8.57;;;4.68;;
42168;SDS011;27838;43.858;25.974;2022-07-10T09:41:22;7.85;;;4.70;;
42168;SDS011;27838;43.858;25.974;2022-07-10T09:43:59;5.10;;;4.13;;
42168;SDS011;27838;43.858;25.974;2022-07-10T09:46:38;9.25;;;4.95;;
42168;SDS011;27838;43.858;25.974;2022-07-10T09:49:13;6.55;;;4.32;;
42168;SDS011;27838;43.858;25.974;2022-07-10T09:51:41;5.00;;;4.45;;
42168;SDS011;27838;43.858;25.974;2022-07-10T09:54:10;7.43;;;4.72;;
42168;SDS011;27838;43.858;25.974;2022-07-10T09:56:41;6.85;;;4.53;;
42168;SDS011;27838;43.858;25.974;2022-07-10T09:59:12;4.18;;;3.75;;
42168;SDS011;27838;43.858;25.974;2022-07-10T10:01:49;4.93;;;4.20;;
42168;SDS011;27838;43.858;25.974;2022-07-10T10:04:18;7.43;;;4.40;;
42168;SDS011;27838;43.858;25.974;2022-07-10T10:06:50;5.40;;;4.72;;
42168;SDS011;27838;43.858;25.974;2022-07-10T10:09:22;4.47;;;4.07;;
42168;SDS011;27838;43.858;25.974;2022-07-10T10:11:57;11.50;;;5.57;;
42168;SDS011;27838;43.858;25.974;2022-07-10T10:14:28;6.75;;;5.43;;
42168;SDS011;27838;43.858;25.974;2022-07-10T10:16:55;6.50;;;5.35;;
42168;SDS011;27838;43.858;25.974;2022-07-10T10:19:23;5.90;;;4.90;;
42168;SDS011;27838;43.858;25.974;2022-07-10T10:22:08;6.78;;;5.20;;
42168;SDS011;27838;43.858;25.974;2022-07-10T10:24:35;6.45;;;5.68;;
42168;SDS011;27838;43.858;25.974;2022-07-10T10:27:06;10.60;;;5.82;;
42168;SDS011;27838;43.858;25.974;2022-07-10T10:29:37;12.02;;;6.18;;
42168;SDS011;27838;43.858;25.974;2022-07-10T10:32:06;9.98;;;5.30;;
42168;SDS011;27838;43.858;25.974;2022-07-10T10:34:37;10.95;;;5.90;;
42168;SDS011;27838;43.858;25.974;2022-07-10T10:39:53;6.63;;;5.93;;
42168;SDS011;27838;43.858;25.974;2022-07-10T10:42:39;10.38;;;4.75;;
42168;SDS011;27838;43.858;25.974;2022-07-10T10:45:22;5.63;;;5.00;;
42168;SDS011;27838;43.858;25.974;2022-07-10T10:48:00;9.73;;;4.57;;
42168;SDS011;27838;43.858;25.974;2022-07-10T10:50:38;7.43;;;3.92;;
42168;SDS011;27838;43.858;25.974;2022-07-10T10:58:40;3.67;;;3.30;;
42168;SDS011;27838;43.858;25.974;2022-07-10T11:06:41;8.18;;;5.43;;
42168;SDS011;27838;43.858;25.974;2022-07-10T11:14:47;11.65;;;5.70;;
42168;SDS011;27838;43.858;25.974;2022-07-10T11:17:14;6.72;;;4.78;;
42168;SDS011;27838;43.858;25.974;2022-07-10T11:19:41;6.20;;;4.68;;
42168;SDS011;27838;43.858;25.974;2022-07-10T11:22:11;10.77;;;4.43;;
42168;SDS011;27838;43.858;25.974;2022-07-10T11:24:51;9.50;;;4.35;;
42168;SDS011;27838;43.858;25.974;2022-07-10T11:30:49;5.25;;;4.75;;
42168;SDS011;27838;43.858;25.974;2022-07-10T11:33:18;10.30;;;5.38;;
42168;SDS011;27838;43.858;25.974;2022-07-10T11:35:46;5.97;;;4.22;;
42168;SDS011;27838;43.858;25.974;2022-07-10T11:40:49;4.45;;;3.50;;
42168;SDS011;27838;43.858;25.974;2022-07-10T11:43:16;7.10;;;3.95;;
42168;SDS011;27838;43.858;25.974;2022-07-10T11:45:47;7.13;;;3.50;;
42168;SDS011;27838;43.858;25.974;2022-07-10T11:48:20;6.15;;;3.50;;
42168;SDS011;27838;43.858;25.974;2022-07-10T11:50:48;4.03;;;3.13;;
42168;SDS011;27838;43.858;25.974;2022-07-10T11:53:22;3.97;;;2.97;;
42168;SDS011;27838;43.858;25.974;2022-07-10T11:55:49;5.90;;;3.20;;
42168;SDS011;27838;43.858;25.974;2022-07-10T11:58:17;5.90;;;3.33;;
42168;SDS011;27838;43.858;25.974;2022-07-10T12:00:58;6.05;;;3.83;;
42168;SDS011;27838;43.858;25.974;2022-07-10T12:03:27;6.78;;;3.40;;
42168;SDS011;27838;43.858;25.974;2022-07-10T12:05:53;3.90;;;3.47;;
42168;SDS011;27838;43.858;25.974;2022-07-10T12:08:21;5.65;;;3.13;;
42168;SDS011;27838;43.858;25.974;2022-07-10T12:10:48;5.93;;;3.20;;
42168;SDS011;27838;43.858;25.974;2022-07-10T12:13:15;5.07;;;2.90;;
42168;SDS011;27838;43.858;25.974;2022-07-10T12:15:43;4.55;;;3.22;;
42168;SDS011;27838;43.858;25.974;2022-07-10T12:18:16;3.67;;;2.88;;
42168;SDS011;27838;43.858;25.974;2022-07-10T12:20:45;4.82;;;2.83;;
42168;SDS011;27838;43.858;25.974;2022-07-10T12:23:16;7.60;;;3.20;;
42168;SDS011;27838;43.858;25.974;2022-07-10T12:25:44;4.38;;;3.10;;
42168;SDS011;27838;43.858;25.974;2022-07-10T12:28:14;4.72;;;3.33;;
42168;SDS011;27838;43.858;25.974;2022-07-10T12:30:44;3.28;;;2.97;;
42168;SDS011;27838;43.858;25.974;2022-07-10T12:33:23;4.10;;;2.95;;
42168;SDS011;27838;43.858;25.974;2022-07-10T12:35:56;3.45;;;3.10;;
42168;SDS011;27838;43.858;25.974;2022-07-10T12:38:25;5.47;;;2.70;;
42168;SDS011;27838;43.858;25.974;2022-07-10T12:41:08;4.75;;;3.03;;
42168;SDS011;27838;43.858;25.974;2022-07-10T12:43:40;3.28;;;2.78;;
42168;SDS011;27838;43.858;25.974;2022-07-10T12:57:05;5.85;;;3.58;;
42168;SDS011;27838;43.858;25.974;2022-07-10T12:59:36;8.25;;;3.00;;
42168;SDS011;27838;43.858;25.974;2022-07-10T13:02:21;5.35;;;3.00;;
42168;SDS011;27838;43.858;25.974;2022-07-10T13:04:55;2.90;;;2.58;;
42168;SDS011;27838;43.858;25.974;2022-07-10T13:07:32;6.28;;;2.72;;
42168;SDS011;27838;43.858;25.974;2022-07-10T13:10:00;3.80;;;2.90;;
42168;SDS011;27838;43.858;25.974;2022-07-10T13:12:31;3.88;;;2.88;;
42168;SDS011;27838;43.858;25.974;2022-07-10T13:15:02;3.13;;;2.78;;
42168;SDS011;27838;43.858;25.974;2022-07-10T13:17:29;4.82;;;3.10;;
42168;SDS011;27838;43.858;25.974;2022-07-10T13:19:56;3.88;;;3.10;;
42168;SDS011;27838;43.858;25.974;2022-07-10T13:22:23;5.57;;;3.22;;
42168;SDS011;27838;43.858;25.974;2022-07-10T13:24:49;4.97;;;3.40;;
42168;SDS011;27838;43.858;25.974;2022-07-10T13:27:16;7.93;;;5.95;;
42168;SDS011;27838;43.858;25.974;2022-07-10T13:29:43;5.22;;;3.10;;
42168;SDS011;27838;43.858;25.974;2022-07-10T13:32:09;5.18;;;3.30;;
42168;SDS011;27838;43.858;25.974;2022-07-10T13:34:36;11.07;;;3.03;;
42168;SDS011;27838;43.858;25.974;2022-07-10T13:37:03;7.93;;;3.28;;
42168;SDS011;27838;43.858;25.974;2022-07-10T13:39:30;5.80;;;3.05;;
42168;SDS011;27838;43.858;25.974;2022-07-10T13:41:57;4.60;;;3.58;;
42168;SDS011;27838;43.858;25.974;2022-07-10T13:44:24;6.05;;;3.25;;
42168;SDS011;27838;43.858;25.974;2022-07-10T13:46:50;5.13;;;3.35;;
42168;SDS011;27838;43.858;25.974;2022-07-10T13:49:17;12.93;;;3.63;;
42168;SDS011;27838;43.858;25.974;2022-07-10T13:51:44;6.57;;;3.83;;
42168;SDS011;27838;43.858;25.974;2022-07-10T13:54:10;6.60;;;3.25;;
42168;SDS011;27838;43.858;25.974;2022-07-10T13:56:37;6.57;;;3.67;;
42168;SDS011;27838;43.858;25.974;2022-07-10T13:59:04;4.82;;;3.50;;
42168;SDS011;27838;43.858;25.974;2022-07-10T14:01:30;6.75;;;3.33;;
42168;SDS011;27838;43.858;25.974;2022-07-10T14:03:57;5.43;;;3.28;;
42168;SDS011;27838;43.858;25.974;2022-07-10T14:06:23;3.70;;;3.08;;
42168;SDS011;27838;43.858;25.974;2022-07-10T14:08:50;7.80;;;3.38;;
42168;SDS011;27838;43.858;25.974;2022-07-10T14:11:16;3.80;;;3.50;;
42168;SDS011;27838;43.858;25.974;2022-07-10T14:13:44;6.53;;;3.58;;
42168;SDS011;27838;43.858;25.974;2022-07-10T14:16:11;3.78;;;3.38;;
42168;SDS011;27838;43.858;25.974;2022-07-10T14:18:37;11.50;;;3.85;;
42168;SDS011;27838;43.858;25.974;2022-07-10T14:21:05;15.60;;;4.82;;
42168;SDS011;27838;43.858;25.974;2022-07-10T14:23:34;6.97;;;4.03;;
42168;SDS011;27838;43.858;25.974;2022-07-10T14:26:02;14.15;;;4.30;;
42168;SDS011;27838;43.858;25.974;2022-07-10T14:28:30;6.28;;;4.18;;
42168;SDS011;27838;43.858;25.974;2022-07-10T14:30:57;9.48;;;6.55;;
42168;SDS011;27838;43.858;25.974;2022-07-10T14:33:28;7.93;;;5.50;;
42168;SDS011;27838;43.858;25.974;2022-07-10T14:35:54;5.72;;;3.67;;
42168;SDS011;27838;43.858;25.974;2022-07-10T14:38:21;6.47;;;3.95;;
42168;SDS011;27838;43.858;25.974;2022-07-10T14:40:48;7.30;;;3.90;;
42168;SDS011;27838;43.858;25.974;2022-07-10T14:43:16;4.45;;;3.80;;
42168;SDS011;27838;43.858;25.974;2022-07-10T14:45:43;6.15;;;4.05;;
42168;SDS011;27838;43.858;25.974;2022-07-10T14:48:10;14.25;;;4.32;;
42168;SDS011;27838;43.858;25.974;2022-07-10T14:50:37;10.48;;;4.40;;
42168;SDS011;27838;43.858;25.974;2022-07-10T14:53:04;5.88;;;3.80;;
42168;SDS011;27838;43.858;25.974;2022-07-10T14:55:32;5.03;;;3.70;;
42168;SDS011;27838;43.858;25.974;2022-07-10T14:57:59;7.40;;;4.03;;
42168;SDS011;27838;43.858;25.974;2022-07-10T15:00:25;5.85;;;3.47;;
42168;SDS011;27838;43.858;25.974;2022-07-10T15:02:52;14.57;;;3.90;;
42168;SDS011;27838;43.858;25.974;2022-07-10T15:05:19;10.95;;;4.25;;
42168;SDS011;27838;43.858;25.974;2022-07-10T15:07:45;13.98;;;4.50;;
42168;SDS011;27838;43.858;25.974;2022-07-10T15:10:12;10.88;;;4.60;;
42168;SDS011;27838;43.858;25.974;2022-07-10T15:12:40;8.02;;;4.82;;
42168;SDS011;27838;43.858;25.974;2022-07-10T15:15:09;6.53;;;4.28;;
42168;SDS011;27838;43.858;25.974;2022-07-10T15:17:36;5.90;;;4.05;;